createdAt,value
2023-03-24T00:00:10.206Z,12.79
2023-03-24T00:01:10.201Z,12.89
2023-03-24T00:02:10.226Z,12.87
2023-03-24T00:03:10.213Z,12.83
2023-03-24T00:04:10.201Z,12.83
2023-03-24T00:05:10.154Z,12.86
2023-03-24T00:06:10.155Z,12.85
2023-03-24T00:07:10.123Z,12.83
2023-03-24T00:08:10.100Z,12.74
2023-03-24T00:09:10.095Z,12.77
2023-03-24T00:10:10.072Z,12.77
2023-03-24T00:11:10.083Z,12.70
2023-03-24T00:12:10.054Z,12.64
2023-03-24T00:13:10.046Z,12.65
2023-03-24T00:14:10.032Z,12.65
2023-03-24T00:15:10.026Z,12.65
2023-03-24T00:16:10.104Z,12.64
2023-03-24T00:17:10.001Z,12.64
2023-03-24T00:18:10.003Z,12.53
2023-03-24T00:19:09.975Z,12.45
2023-03-24T00:20:09.986Z,12.46
2023-03-24T00:21:09.976Z,12.45
2023-03-24T00:22:09.951Z,12.42
2023-03-24T00:23:18.022Z,12.32
2023-03-24T00:24:09.914Z,12.31
2023-03-24T00:25:09.903Z,12.29
2023-03-24T00:26:09.936Z,12.27
2023-03-24T00:27:09.895Z,12.24
2023-03-24T00:28:09.876Z,12.23
2023-03-24T00:29:09.860Z,12.12
2023-03-24T00:30:09.874Z,12.16
2023-03-24T00:31:09.895Z,12.12
2023-03-24T00:32:09.833Z,12.09
2023-03-24T00:33:09.875Z,12.12
2023-03-24T00:34:09.839Z,12.02
2023-03-24T00:35:09.827Z,12.10
2023-03-24T00:36:09.898Z,12.10
2023-03-24T00:37:09.784Z,11.98
2023-03-24T00:38:09.764Z,12.02
2023-03-24T00:39:10.342Z,12.07
2023-03-24T00:40:09.741Z,12.01
2023-03-24T00:41:09.832Z,12.02
2023-03-24T00:42:09.736Z,11.96
2023-03-24T00:43:10.341Z,11.98
2023-03-24T00:44:09.713Z,11.94
2023-03-24T00:45:09.784Z,11.95
2023-03-24T00:46:09.673Z,11.91
2023-03-24T00:47:09.794Z,11.99
2023-03-24T00:48:09.736Z,12.04
2023-03-24T00:49:09.750Z,12.02
2023-03-24T00:50:09.649Z,11.98
2023-03-24T00:51:09.779Z,12.10
2023-03-24T00:52:09.652Z,12.13
2023-03-24T00:53:09.745Z,12.07
2023-03-24T00:54:09.644Z,12.10
2023-03-24T00:55:09.772Z,12.17
2023-03-24T00:56:09.562Z,12.10
2023-03-24T00:57:09.672Z,12.09
2023-03-24T00:58:09.545Z,12.10
2023-03-24T00:59:09.561Z,12.10
2023-03-24T01:00:35.441Z,12.10
2023-03-24T01:01:09.934Z,12.13
2023-03-24T01:02:09.661Z,12.13
2023-03-24T01:03:09.668Z,12.17
2023-03-24T01:04:09.627Z,12.21
2023-03-24T01:05:10.028Z,12.19
2023-03-24T01:06:09.595Z,12.29
2023-03-24T01:07:09.870Z,12.32
2023-03-24T01:08:09.648Z,12.37
2023-03-24T01:09:09.555Z,12.42
2023-03-24T01:10:09.469Z,12.45
2023-03-24T01:11:09.497Z,12.39
2023-03-24T01:12:09.497Z,12.47
2023-03-24T01:13:09.589Z,12.45
2023-03-24T01:14:09.581Z,12.42
2023-03-24T01:15:09.422Z,12.50
2023-03-24T01:16:09.528Z,12.52
2023-03-24T01:17:09.411Z,12.47
2023-03-24T01:18:09.434Z,12.47
2023-03-24T01:19:09.621Z,12.47
2023-03-24T01:20:09.425Z,12.50
2023-03-24T01:21:09.425Z,12.47
2023-03-24T01:22:09.424Z,12.49
2023-03-24T01:23:09.365Z,12.59
2023-03-24T01:24:09.369Z,12.52
2023-03-24T01:25:09.418Z,12.60
2023-03-24T01:26:09.344Z,12.59
2023-03-24T01:27:09.292Z,12.68
2023-03-24T01:28:09.484Z,12.64
2023-03-24T01:29:09.315Z,12.59
2023-03-24T01:30:09.452Z,12.62
2023-03-24T01:31:09.220Z,12.60
2023-03-24T01:32:09.265Z,12.60
2023-03-24T01:33:10.387Z,12.57
2023-03-24T01:34:09.211Z,12.57
2023-03-24T01:35:09.332Z,12.56
2023-03-24T01:36:11.735Z,12.56
2023-03-24T01:37:09.131Z,12.62
2023-03-24T01:38:09.107Z,12.65
2023-03-24T01:39:09.078Z,12.65
2023-03-24T01:40:09.106Z,12.56
2023-03-24T01:41:09.067Z,12.56
2023-03-24T01:42:09.069Z,12.68
2023-03-24T01:43:09.034Z,12.67
2023-03-24T01:44:09.045Z,12.64
2023-03-24T01:45:09.012Z,12.65
2023-03-24T01:46:09.072Z,12.65
2023-03-24T01:47:09.014Z,12.65
2023-03-24T01:48:09.051Z,12.64
2023-03-24T01:49:08.974Z,12.59
2023-03-24T01:50:08.992Z,12.62
2023-03-24T01:51:08.963Z,12.68
2023-03-24T01:52:08.960Z,12.62
2023-03-24T01:53:08.953Z,12.60
2023-03-24T01:54:08.930Z,12.65
2023-03-24T01:55:08.912Z,12.65
2023-03-24T01:56:08.913Z,12.65
2023-03-24T01:57:09.053Z,12.65
2023-03-24T01:58:08.887Z,12.62
2023-03-24T01:59:08.871Z,12.65
2023-03-24T02:00:08.846Z,12.65
2023-03-24T02:01:08.897Z,12.56
2023-03-24T02:02:08.840Z,12.57
2023-03-24T02:03:08.810Z,12.67
2023-03-24T02:04:08.865Z,12.64
2023-03-24T02:05:08.787Z,12.59
2023-03-24T02:06:08.795Z,12.65
2023-03-24T02:07:08.796Z,12.54
2023-03-24T02:08:08.761Z,12.62
2023-03-24T02:09:08.758Z,12.64
2023-03-24T02:10:08.730Z,12.64
2023-03-24T02:11:08.724Z,12.65
2023-03-24T02:12:08.735Z,12.53
2023-03-24T02:13:08.729Z,12.49
2023-03-24T02:14:08.696Z,12.50
2023-03-24T02:15:08.700Z,12.46
2023-03-24T02:16:08.754Z,12.57
2023-03-24T02:17:08.653Z,12.64
2023-03-24T02:18:08.708Z,12.59
2023-03-24T02:19:08.635Z,12.59
2023-03-24T02:20:08.647Z,12.49
2023-03-24T02:21:08.644Z,12.62
2023-03-24T02:22:08.606Z,12.57
2023-03-24T02:23:08.614Z,12.59
2023-03-24T02:24:08.576Z,12.60
2023-03-24T02:25:08.576Z,12.62
2023-03-24T02:26:08.565Z,12.57
2023-03-24T02:27:08.594Z,12.56
2023-03-24T02:28:08.710Z,12.60
2023-03-24T02:29:08.559Z,12.60
2023-03-24T02:30:08.550Z,12.65
2023-03-24T02:31:08.515Z,12.56
2023-03-24T02:32:08.496Z,12.56
2023-03-24T02:33:08.545Z,12.62
2023-03-24T02:34:08.477Z,12.62
2023-03-24T02:35:08.459Z,12.60
2023-03-24T02:36:08.590Z,12.56
2023-03-24T02:37:08.442Z,12.42
2023-03-24T02:38:08.434Z,12.52
2023-03-24T02:39:08.420Z,12.45
2023-03-24T02:40:08.430Z,12.47
2023-03-24T02:41:08.396Z,12.42
2023-03-24T02:42:08.395Z,12.49
2023-03-24T02:43:08.369Z,12.45
2023-03-24T02:44:08.407Z,12.45
2023-03-24T02:45:08.379Z,12.49
2023-03-24T02:46:08.374Z,12.49
2023-03-24T02:47:08.327Z,12.49
2023-03-24T02:48:09.999Z,12.47
2023-03-24T02:49:08.314Z,12.41
2023-03-24T02:50:08.300Z,12.47
2023-03-24T02:51:08.297Z,12.39
2023-03-24T02:52:08.281Z,12.47
2023-03-24T02:53:08.251Z,12.41
2023-03-24T02:54:08.301Z,12.42
2023-03-24T02:55:08.273Z,12.46
2023-03-24T02:56:08.317Z,12.38
2023-03-24T02:57:08.269Z,12.50
2023-03-24T02:58:08.200Z,12.45
2023-03-24T02:59:08.194Z,12.49
2023-03-24T03:00:08.201Z,12.45
2023-03-24T03:01:08.205Z,12.47
2023-03-24T03:02:08.186Z,12.42
2023-03-24T03:03:08.181Z,12.45
2023-03-24T03:04:08.158Z,12.34
2023-03-24T03:05:08.138Z,12.45
2023-03-24T03:06:08.116Z,12.38
2023-03-24T03:07:08.092Z,12.46
2023-03-24T03:08:08.104Z,12.42
2023-03-24T03:09:08.063Z,12.41
2023-03-24T03:10:08.067Z,12.38
2023-03-24T03:11:08.051Z,12.34
2023-03-24T03:12:08.034Z,12.28
2023-03-24T03:13:08.034Z,12.31
2023-03-24T03:14:08.039Z,12.32
2023-03-24T03:15:08.017Z,12.35
2023-03-24T03:16:08.140Z,12.29
2023-03-24T03:17:07.988Z,12.31
2023-03-24T03:18:08.032Z,12.37
2023-03-24T03:19:07.969Z,12.34
2023-03-24T03:20:08.065Z,12.24
2023-03-24T03:21:07.934Z,12.35
2023-03-24T03:22:07.948Z,12.31
2023-03-24T03:23:07.939Z,12.29
2023-03-24T03:24:07.971Z,12.34
2023-03-24T03:25:07.891Z,12.21
2023-03-24T03:26:07.885Z,12.23
2023-03-24T03:27:07.907Z,12.17
2023-03-24T03:28:07.861Z,12.29
2023-03-24T03:29:07.847Z,12.28
2023-03-24T03:30:07.849Z,12.20
2023-03-24T03:31:07.871Z,12.28
2023-03-24T03:32:08.020Z,12.20
2023-03-24T03:33:07.863Z,12.21
2023-03-24T03:34:07.803Z,12.21
2023-03-24T03:35:07.806Z,12.23
2023-03-24T03:36:07.800Z,12.24
2023-03-24T03:37:07.762Z,12.29
2023-03-24T03:38:07.768Z,12.23
2023-03-24T03:39:07.758Z,12.23
2023-03-24T03:40:07.745Z,12.27
2023-03-24T03:41:07.738Z,12.20
2023-03-24T03:42:07.723Z,12.20
2023-03-24T03:43:07.720Z,12.19
2023-03-24T03:44:07.719Z,12.21
2023-03-24T03:45:07.676Z,12.29
2023-03-24T03:46:07.732Z,12.23
2023-03-24T03:47:07.651Z,12.24
2023-03-24T03:48:07.732Z,12.28
2023-03-24T03:49:07.648Z,12.24
2023-03-24T03:50:07.648Z,12.24
2023-03-24T03:51:13.629Z,12.24
2023-03-24T03:52:08.609Z,12.31
2023-03-24T03:53:07.589Z,12.24
2023-03-24T03:54:07.605Z,12.23
2023-03-24T03:55:07.612Z,12.23
2023-03-24T03:56:07.573Z,12.24
2023-03-24T03:57:07.619Z,12.23
2023-03-24T03:58:07.560Z,12.27
2023-03-24T03:59:07.530Z,12.24
2023-03-24T04:00:07.527Z,12.28
2023-03-24T04:01:07.518Z,12.23
2023-03-24T04:02:07.552Z,12.24
2023-03-24T04:03:07.550Z,12.29
2023-03-24T04:04:07.490Z,12.23
2023-03-24T04:05:07.491Z,12.28
2023-03-24T04:06:07.475Z,12.29
2023-03-24T04:07:07.436Z,12.35
2023-03-24T04:08:07.414Z,12.34
2023-03-24T04:09:07.424Z,12.38
2023-03-24T04:10:07.410Z,12.35
2023-03-24T04:11:07.382Z,12.28
2023-03-24T04:12:07.381Z,12.31
2023-03-24T04:13:07.359Z,12.24
2023-03-24T04:14:07.359Z,12.28
2023-03-24T04:15:07.369Z,12.32
2023-03-24T04:16:07.368Z,12.37
2023-03-24T04:17:07.334Z,12.28
2023-03-24T04:18:07.368Z,12.37
2023-03-24T04:19:07.295Z,12.31
2023-03-24T04:20:07.303Z,12.27
2023-03-24T04:21:07.272Z,12.27
2023-03-24T04:22:07.290Z,12.19
2023-03-24T04:23:07.249Z,12.27
2023-03-24T04:24:07.238Z,12.24
2023-03-24T04:25:07.230Z,12.19
2023-03-24T04:26:07.232Z,12.19
2023-03-24T04:27:07.236Z,12.28
2023-03-24T04:28:07.192Z,12.24
2023-03-24T04:29:07.186Z,12.24
2023-03-24T04:30:07.192Z,12.17
2023-03-24T04:31:07.211Z,12.27
2023-03-24T04:32:07.154Z,12.31
2023-03-24T04:33:07.212Z,12.20
2023-03-24T04:34:07.132Z,12.27
2023-03-24T04:35:07.138Z,12.28
2023-03-24T04:36:07.151Z,12.29
2023-03-24T04:37:07.104Z,12.35
2023-03-24T04:38:07.088Z,12.23
2023-03-24T04:39:07.081Z,12.28
2023-03-24T04:40:07.062Z,12.21
2023-03-24T04:41:07.069Z,12.20
2023-03-24T04:42:07.050Z,12.13
2023-03-24T04:43:07.033Z,12.24
2023-03-24T04:44:07.017Z,12.23
2023-03-24T04:45:07.035Z,12.16
2023-03-24T04:46:07.059Z,12.19
2023-03-24T04:47:07.014Z,12.09
2023-03-24T04:48:07.092Z,12.10
2023-03-24T04:49:06.954Z,12.12
2023-03-24T04:50:06.982Z,12.04
2023-03-24T04:51:06.932Z,11.98
2023-03-24T04:52:06.993Z,12.05
2023-03-24T04:53:06.914Z,11.99
2023-03-24T04:54:06.932Z,12.09
2023-03-24T04:55:06.891Z,11.98
2023-03-24T04:56:06.881Z,12.07
2023-03-24T04:57:06.915Z,12.07
2023-03-24T04:58:06.893Z,12.04
2023-03-24T04:59:06.856Z,11.98
2023-03-24T05:00:06.847Z,12.02
2023-03-24T05:01:06.865Z,12.10
2023-03-24T05:02:06.847Z,11.96
2023-03-24T05:03:06.838Z,11.95
2023-03-24T05:04:06.847Z,11.91
2023-03-24T05:05:06.788Z,11.95
2023-03-24T05:06:06.785Z,11.94
2023-03-24T05:07:06.780Z,11.98
2023-03-24T05:08:06.798Z,11.98
2023-03-24T05:09:06.730Z,11.98
2023-03-24T05:10:06.734Z,11.95
2023-03-24T05:11:06.731Z,12.01
2023-03-24T05:12:06.715Z,11.95
2023-03-24T05:13:06.728Z,11.91
2023-03-24T05:14:06.718Z,11.95
2023-03-24T05:15:06.665Z,11.90
2023-03-24T05:16:06.662Z,11.86
2023-03-24T05:17:06.654Z,11.95
2023-03-24T05:18:06.666Z,11.98
2023-03-24T05:19:06.621Z,12.02
2023-03-24T05:20:06.638Z,12.02
2023-03-24T05:21:06.601Z,11.94
2023-03-24T05:22:06.611Z,11.95
2023-03-24T05:23:06.597Z,11.95
2023-03-24T05:24:06.594Z,12.05
2023-03-24T05:25:06.584Z,12.05
2023-03-24T05:26:06.542Z,12.02
2023-03-24T05:27:06.544Z,12.10
2023-03-24T05:28:06.547Z,12.04
2023-03-24T05:29:06.511Z,11.98
2023-03-24T05:30:06.520Z,11.99
2023-03-24T05:31:06.492Z,12.09
2023-03-24T05:32:06.476Z,11.98
2023-03-24T05:33:06.507Z,12.09
2023-03-24T05:34:06.445Z,12.02
2023-03-24T05:35:06.469Z,12.04
2023-03-24T05:36:06.475Z,12.10
2023-03-24T05:37:06.419Z,12.13
2023-03-24T05:38:06.407Z,12.13
2023-03-24T05:39:06.408Z,12.10
2023-03-24T05:40:06.423Z,12.17
2023-03-24T05:41:06.376Z,12.29
2023-03-24T05:42:06.358Z,12.16
2023-03-24T05:43:06.357Z,12.13
2023-03-24T05:44:06.372Z,12.23
2023-03-24T05:45:06.340Z,12.19
2023-03-24T05:46:06.340Z,12.24
2023-03-24T05:47:06.324Z,12.23
2023-03-24T05:48:06.343Z,12.27
2023-03-24T05:49:06.308Z,12.27
2023-03-24T05:50:06.290Z,12.29
2023-03-24T05:51:06.283Z,12.24
2023-03-24T05:52:06.254Z,12.29
2023-03-24T05:53:06.249Z,12.32
2023-03-24T05:54:06.359Z,12.24
2023-03-24T05:55:06.210Z,12.24
2023-03-24T05:56:06.250Z,12.23
2023-03-24T05:57:06.258Z,12.21
2023-03-24T05:58:06.181Z,12.21
2023-03-24T05:59:06.193Z,12.23
2023-03-24T06:00:06.160Z,12.24
2023-03-24T06:01:06.170Z,12.28
2023-03-24T06:02:06.185Z,12.34
2023-03-24T06:03:06.452Z,12.35
2023-03-24T06:04:06.299Z,12.38
2023-03-24T06:05:06.123Z,12.39
2023-03-24T06:06:06.098Z,12.37
2023-03-24T06:07:06.130Z,12.29
2023-03-24T06:08:06.085Z,12.37
2023-03-24T06:09:06.080Z,12.35
2023-03-24T06:10:06.049Z,12.41
2023-03-24T06:11:06.034Z,12.35
2023-03-24T06:12:06.070Z,12.39
2023-03-24T06:13:06.024Z,12.37
2023-03-24T06:14:06.018Z,12.38
2023-03-24T06:15:06.004Z,12.38
2023-03-24T06:16:06.039Z,12.37
2023-03-24T06:17:05.975Z,12.34
2023-03-24T06:18:06.108Z,12.28
2023-03-24T06:19:05.946Z,12.37
2023-03-24T06:20:05.957Z,12.38
2023-03-24T06:21:05.930Z,12.37
2023-03-24T06:22:05.949Z,12.34
2023-03-24T06:23:05.988Z,12.32
2023-03-24T06:24:13.953Z,12.42
2023-03-24T06:25:05.898Z,12.45
2023-03-24T06:26:05.905Z,12.45
2023-03-24T06:27:05.855Z,12.46
2023-03-24T06:28:05.883Z,12.46
2023-03-24T06:29:05.854Z,12.42
2023-03-24T06:30:05.870Z,12.46
2023-03-24T06:31:05.884Z,12.52
2023-03-24T06:32:05.853Z,12.49
2023-03-24T06:33:08.132Z,12.52
2023-03-24T06:34:05.799Z,12.54
2023-03-24T06:35:05.779Z,12.57
2023-03-24T06:36:05.824Z,12.64
2023-03-24T06:37:05.776Z,12.70
2023-03-24T06:38:05.795Z,12.72
2023-03-24T06:39:05.727Z,12.74
2023-03-24T06:40:05.845Z,12.75
2023-03-24T06:41:05.731Z,12.78
2023-03-24T06:42:05.786Z,12.79
2023-03-24T06:43:05.701Z,12.92
2023-03-24T06:44:05.700Z,12.86
2023-03-24T06:45:05.676Z,13.08
2023-03-24T06:46:05.786Z,13.10
2023-03-24T06:47:05.652Z,13.10
2023-03-24T06:48:05.698Z,13.17
2023-03-24T06:49:05.625Z,13.15
2023-03-24T06:50:05.639Z,13.22
2023-03-24T06:51:05.597Z,13.17
2023-03-24T06:52:05.654Z,13.17
2023-03-24T06:53:05.584Z,13.23
2023-03-24T06:54:05.575Z,13.36
2023-03-24T06:55:05.556Z,13.32
2023-03-24T06:56:05.571Z,13.39
2023-03-24T06:57:05.579Z,13.45
2023-03-24T06:58:05.531Z,13.42
2023-03-24T06:59:05.523Z,13.51
2023-03-24T07:00:05.550Z,13.46
2023-03-24T07:01:05.490Z,13.55
2023-03-24T07:02:05.553Z,13.52
2023-03-24T07:03:05.571Z,13.54
2023-03-24T07:04:05.533Z,13.59
2023-03-24T07:05:05.463Z,13.57
2023-03-24T07:06:05.441Z,13.66
2023-03-24T07:07:30.855Z,13.54
2023-03-24T07:08:33.930Z,13.62
2023-03-24T07:09:06.425Z,13.52
2023-03-24T07:10:05.391Z,13.55
2023-03-24T07:11:05.375Z,13.54
2023-03-24T07:12:05.379Z,13.55
2023-03-24T07:13:05.354Z,13.59
2023-03-24T07:14:05.368Z,13.54
2023-03-24T07:15:05.333Z,13.51
2023-03-24T07:16:05.376Z,13.51
2023-03-24T07:17:07.337Z,13.54
2023-03-24T07:18:05.506Z,13.51
2023-03-24T07:19:05.371Z,13.54
2023-03-24T07:20:05.341Z,13.55
2023-03-24T07:21:05.398Z,13.51
2023-03-24T07:22:05.953Z,13.45
2023-03-24T07:23:05.322Z,13.52
2023-03-24T07:24:05.235Z,13.51
2023-03-24T07:25:05.221Z,13.49
2023-03-24T07:26:05.226Z,13.64
2023-03-24T07:27:05.204Z,13.60
2023-03-24T07:28:05.200Z,13.71
2023-03-24T07:29:05.176Z,13.71
2023-03-24T07:30:05.289Z,13.69
2023-03-24T07:31:05.202Z,13.59
2023-03-24T07:32:05.180Z,13.51
2023-03-24T07:33:05.188Z,13.46
2023-03-24T07:34:05.112Z,13.44
2023-03-24T07:35:05.148Z,13.45
2023-03-24T07:36:05.205Z,13.30
2023-03-24T07:37:05.101Z,13.32
2023-03-24T07:38:05.309Z,13.25
2023-03-24T07:39:05.067Z,13.25
2023-03-24T07:40:05.052Z,13.28
2023-03-24T07:41:05.036Z,13.26
2023-03-24T07:42:05.044Z,13.08
2023-03-24T07:43:06.276Z,13.07
2023-03-24T07:44:05.016Z,12.87
2023-03-24T07:45:05.014Z,12.79
2023-03-24T07:46:05.056Z,12.65
2023-03-24T07:47:04.980Z,12.53
2023-03-24T07:48:05.071Z,12.50
2023-03-24T07:49:18.101Z,12.37
2023-03-24T07:50:05.952Z,12.31
2023-03-24T07:51:04.958Z,12.31
2023-03-24T07:52:04.911Z,12.28
2023-03-24T07:53:04.920Z,12.21
2023-03-24T07:54:04.997Z,12.19
2023-03-24T07:55:05.333Z,12.16
2023-03-24T07:56:20.052Z,12.13
2023-03-24T07:57:04.909Z,12.09
2023-03-24T07:58:04.870Z,12.14
2023-03-24T07:59:04.915Z,12.28
2023-03-24T08:00:04.853Z,12.32
2023-03-24T08:01:04.829Z,12.32
2023-03-24T08:02:05.002Z,12.42
2023-03-24T08:03:04.962Z,12.41
2023-03-24T08:04:05.110Z,12.42
2023-03-24T08:05:04.784Z,12.60
2023-03-24T08:06:04.775Z,12.64
2023-03-24T08:07:04.761Z,12.71
2023-03-24T08:08:04.754Z,12.77
2023-03-24T08:09:04.763Z,12.79
2023-03-24T08:10:04.714Z,12.82
2023-03-24T08:11:04.719Z,12.93
2023-03-24T08:12:17.447Z,12.92
2023-03-24T08:13:05.694Z,12.92
2023-03-24T08:14:04.688Z,12.85
2023-03-24T08:15:04.662Z,12.90
2023-03-24T08:16:04.695Z,12.93
2023-03-24T08:17:04.899Z,12.92
2023-03-24T08:18:04.697Z,12.92
2023-03-24T08:19:04.621Z,12.96
2023-03-24T08:20:06.005Z,12.90
2023-03-24T08:21:04.620Z,12.92
2023-03-24T08:22:04.621Z,12.93
2023-03-24T08:23:04.798Z,13.03
2023-03-24T08:24:04.642Z,12.93
2023-03-24T08:25:04.555Z,13.04
2023-03-24T08:26:04.533Z,13.11
2023-03-24T08:27:04.528Z,13.14
2023-03-24T08:28:04.565Z,13.38
2023-03-24T08:29:04.549Z,13.46
2023-03-24T08:30:04.518Z,13.54
2023-03-24T08:31:04.508Z,13.67
2023-03-24T08:32:04.562Z,13.88
2023-03-24T08:33:04.547Z,13.88
2023-03-24T08:34:04.457Z,13.97
2023-03-24T08:35:04.467Z,14.04
2023-03-24T08:36:04.508Z,13.96
2023-03-24T08:37:04.430Z,14.09
2023-03-24T08:38:06.859Z,14.06
2023-03-24T08:39:04.397Z,13.99
2023-03-24T08:40:04.436Z,13.95
2023-03-24T08:41:04.381Z,14.02
2023-03-24T08:42:04.384Z,14.02
2023-03-24T08:43:04.425Z,14.04
2023-03-24T08:44:06.368Z,14.12
2023-03-24T08:45:04.430Z,14.06
2023-03-24T08:46:04.375Z,14.02
2023-03-24T08:47:04.316Z,14.09
2023-03-24T08:48:04.319Z,13.97
2023-03-24T08:49:04.317Z,14.14
2023-03-24T08:50:04.271Z,14.20
2023-03-24T08:51:04.261Z,14.14
2023-03-24T08:52:04.290Z,14.18
2023-03-24T08:53:04.249Z,14.10
2023-03-24T08:54:04.206Z,14.12
2023-03-24T08:55:04.207Z,14.17
2023-03-24T08:56:04.204Z,14.10
2023-03-24T08:57:04.238Z,14.15
2023-03-24T08:58:04.181Z,14.17
2023-03-24T08:59:04.196Z,14.21
2023-03-24T09:00:04.153Z,14.14
2023-03-24T09:01:04.146Z,14.17
2023-03-24T09:02:04.160Z,14.20
2023-03-24T09:03:04.156Z,14.24
2023-03-24T09:04:04.129Z,14.14
2023-03-24T09:05:04.195Z,14.21
2023-03-24T09:06:04.079Z,14.27
2023-03-24T09:07:04.095Z,14.32
2023-03-24T09:08:04.090Z,14.25
2023-03-24T09:09:04.059Z,14.27
2023-03-24T09:10:04.044Z,14.40
2023-03-24T09:11:04.051Z,14.45
2023-03-24T09:12:04.090Z,14.52
2023-03-24T09:13:04.008Z,14.50
2023-03-24T09:14:04.033Z,14.65
2023-03-24T09:15:03.986Z,14.60
2023-03-24T09:16:04.078Z,14.52
2023-03-24T09:17:03.998Z,14.45
2023-03-24T09:18:04.024Z,14.43
2023-03-24T09:19:03.954Z,14.27
2023-03-24T09:20:03.963Z,14.27
2023-03-24T09:21:03.917Z,14.25
2023-03-24T09:22:03.916Z,14.27
2023-03-24T09:23:03.920Z,14.28
2023-03-24T09:24:03.903Z,14.25
2023-03-24T09:25:03.901Z,14.15
2023-03-24T09:26:03.878Z,14.25
2023-03-24T09:27:03.860Z,14.22
2023-03-24T09:28:03.849Z,14.28
2023-03-24T09:29:03.856Z,14.35
2023-03-24T09:30:03.820Z,14.28
2023-03-24T09:31:03.902Z,14.18
2023-03-24T09:32:03.792Z,14.09
2023-03-24T09:33:03.861Z,14.18
2023-03-24T09:34:04.387Z,14.22
2023-03-24T09:35:03.765Z,14.10
2023-03-24T09:36:03.810Z,14.10
2023-03-24T09:37:03.730Z,14.14
2023-03-24T09:38:03.741Z,14.12
2023-03-24T09:39:03.741Z,14.10
2023-03-24T09:40:03.730Z,14.14
2023-03-24T09:41:03.697Z,14.15
2023-03-24T09:42:03.719Z,14.17
2023-03-24T09:43:03.671Z,14.20
2023-03-24T09:44:03.673Z,14.27
2023-03-24T09:45:03.667Z,14.35
2023-03-24T09:46:03.642Z,14.37
2023-03-24T09:47:03.669Z,14.52
2023-03-24T09:48:03.658Z,14.64
2023-03-24T09:49:03.648Z,14.62
2023-03-24T09:50:03.608Z,14.72
2023-03-24T09:51:03.617Z,14.81
2023-03-24T09:52:03.619Z,14.94
2023-03-24T09:53:03.570Z,14.86
2023-03-24T09:54:03.569Z,14.83
2023-03-24T09:55:03.540Z,14.73
2023-03-24T09:56:03.550Z,14.83
2023-03-24T09:57:03.555Z,14.84
2023-03-24T09:58:03.508Z,14.89
2023-03-24T09:59:03.501Z,15.03
2023-03-24T10:00:03.495Z,15.17
2023-03-24T10:01:03.565Z,15.19
2023-03-24T10:02:03.486Z,15.27
2023-03-24T10:03:03.553Z,15.19
2023-03-24T10:04:03.678Z,15.17
2023-03-24T10:05:03.443Z,15.06
2023-03-24T10:06:03.417Z,15.09
2023-03-24T10:07:03.408Z,14.94
2023-03-24T10:08:03.421Z,14.95
2023-03-24T10:09:03.411Z,14.84
2023-03-24T10:10:03.394Z,14.80
2023-03-24T10:11:03.388Z,14.78
2023-03-24T10:12:03.376Z,14.65
2023-03-24T10:13:03.366Z,14.50
2023-03-24T10:14:04.344Z,14.40
2023-03-24T10:15:03.324Z,14.28
2023-03-24T10:16:03.357Z,14.24
2023-03-24T10:17:03.313Z,14.22
2023-03-24T10:18:03.323Z,14.17
2023-03-24T10:19:03.281Z,14.14
2023-03-24T10:20:03.302Z,14.14
2023-03-24T10:21:03.254Z,14.15
2023-03-24T10:22:03.284Z,14.07
2023-03-24T10:23:03.244Z,14.17
2023-03-24T10:24:03.257Z,14.14
2023-03-24T10:25:03.228Z,14.20
2023-03-24T10:26:03.209Z,14.22
2023-03-24T10:27:03.249Z,14.27
2023-03-24T10:28:03.197Z,14.25
2023-03-24T10:29:03.190Z,14.42
2023-03-24T10:30:03.176Z,14.45
2023-03-24T10:31:03.141Z,14.60
2023-03-24T10:32:03.208Z,14.75
2023-03-24T10:33:03.252Z,14.75
2023-03-24T10:34:03.146Z,14.88
2023-03-24T10:35:03.106Z,14.98
2023-03-24T10:36:04.715Z,15.21
2023-03-24T10:37:03.113Z,15.34
2023-03-24T10:38:03.106Z,15.36
2023-03-24T10:39:12.958Z,15.53
2023-03-24T10:40:04.072Z,15.60
2023-03-24T10:41:03.034Z,15.44
2023-03-24T10:42:04.183Z,15.51
2023-03-24T10:43:07.418Z,15.49
2023-03-24T10:44:04.055Z,15.35
2023-03-24T10:45:03.042Z,15.59
2023-03-24T10:46:03.008Z,15.64
2023-03-24T10:47:02.993Z,15.59
2023-03-24T10:48:03.010Z,15.57
2023-03-24T10:49:02.939Z,15.60
2023-03-24T10:50:12.482Z,15.57
2023-03-24T10:51:03.987Z,15.44
2023-03-24T10:52:02.939Z,15.35
2023-03-24T10:53:02.929Z,15.28
2023-03-24T10:54:03.423Z,15.21
2023-03-24T10:55:02.885Z,15.34
2023-03-24T10:56:02.917Z,15.50
2023-03-24T10:57:02.901Z,15.51
2023-03-24T10:58:02.862Z,15.50
2023-03-24T10:59:02.861Z,15.50
2023-03-24T11:00:02.908Z,15.44
2023-03-24T11:01:03.053Z,15.44
2023-03-24T11:02:02.899Z,15.36
2023-03-24T11:03:02.910Z,15.50
2023-03-24T11:04:03.451Z,15.36
2023-03-24T11:05:02.756Z,15.43
2023-03-24T11:06:02.774Z,15.49
2023-03-24T11:07:02.825Z,15.53
2023-03-24T11:08:02.916Z,15.57
2023-03-24T11:09:02.841Z,15.38
2023-03-24T11:10:02.770Z,15.38
2023-03-24T11:11:02.752Z,15.34
2023-03-24T11:12:02.727Z,15.35
2023-03-24T11:13:02.862Z,15.50
2023-03-24T11:14:02.705Z,15.38
2023-03-24T11:15:17.599Z,15.34
2023-03-24T11:16:03.735Z,15.44
2023-03-24T11:17:02.684Z,15.51
2023-03-24T11:18:02.645Z,15.60
2023-03-24T11:19:02.613Z,15.72
2023-03-24T11:20:02.590Z,16.02
2023-03-24T11:21:02.601Z,16.27
2023-03-24T11:22:02.581Z,16.41
2023-03-24T11:23:02.634Z,16.60
2023-03-24T11:24:02.553Z,16.85
2023-03-24T11:25:02.552Z,16.88
2023-03-24T11:26:02.546Z,16.67
2023-03-24T11:27:02.559Z,16.60
2023-03-24T11:28:02.500Z,16.60
2023-03-24T11:29:02.507Z,16.64
2023-03-24T11:30:02.476Z,16.64
2023-03-24T11:31:02.535Z,16.43
2023-03-24T11:32:02.542Z,16.42
2023-03-24T11:33:02.456Z,16.38
2023-03-24T11:34:02.440Z,16.20
2023-03-24T11:35:02.425Z,15.97
2023-03-24T11:36:05.973Z,16.01
2023-03-24T11:37:02.444Z,15.93
2023-03-24T11:38:02.417Z,15.86
2023-03-24T11:39:02.390Z,15.90
2023-03-24T11:40:02.398Z,15.74
2023-03-24T11:41:02.355Z,15.83
2023-03-24T11:42:02.396Z,15.84
2023-03-24T11:43:02.338Z,15.92
2023-03-24T11:44:02.330Z,15.93
2023-03-24T11:45:02.326Z,16.00
2023-03-24T11:46:02.361Z,15.89
2023-03-24T11:47:02.322Z,15.86
2023-03-24T11:48:02.366Z,15.74
2023-03-24T11:49:02.277Z,15.75
2023-03-24T11:50:02.405Z,15.72
2023-03-24T11:51:03.177Z,15.76
2023-03-24T11:52:02.265Z,15.65
2023-03-24T11:53:02.235Z,15.51
2023-03-24T11:54:02.215Z,15.64
2023-03-24T11:55:02.316Z,15.67
2023-03-24T11:56:02.273Z,15.67
2023-03-24T11:57:02.215Z,15.65
2023-03-24T11:58:02.171Z,15.60
2023-03-24T11:59:02.179Z,15.57
2023-03-24T12:00:02.151Z,15.56
2023-03-24T12:01:02.157Z,15.38
2023-03-24T12:02:02.140Z,15.29
2023-03-24T12:03:02.268Z,15.28
2023-03-24T12:04:02.170Z,15.27
2023-03-24T12:05:02.123Z,15.21
2023-03-24T12:06:02.241Z,15.23
2023-03-24T12:07:02.107Z,15.36
2023-03-24T12:08:02.060Z,15.27
2023-03-24T12:09:02.057Z,15.23
2023-03-24T12:10:02.041Z,15.29
2023-03-24T12:11:02.055Z,15.32
2023-03-24T12:12:08.160Z,15.21
2023-03-24T12:13:03.011Z,15.32
2023-03-24T12:14:02.027Z,15.29
2023-03-24T12:15:02.017Z,15.29
2023-03-24T12:16:02.011Z,15.46
2023-03-24T12:17:01.951Z,15.57
2023-03-24T12:18:02.012Z,15.72
2023-03-24T12:19:01.967Z,15.75
2023-03-24T12:20:01.947Z,15.89
2023-03-24T12:21:01.916Z,16.04
2023-03-24T12:22:01.992Z,16.23
2023-03-24T12:23:01.951Z,16.41
2023-03-24T12:24:10.091Z,16.45
2023-03-24T12:25:01.898Z,16.56
2023-03-24T12:26:01.872Z,16.73
2023-03-24T12:27:01.871Z,16.68
2023-03-24T12:28:01.837Z,16.60
2023-03-24T12:29:01.840Z,16.25
2023-03-24T12:30:01.826Z,16.01
2023-03-24T12:31:01.848Z,15.87
2023-03-24T12:32:01.785Z,15.72
2023-03-24T12:33:01.808Z,15.78
2023-03-24T12:34:01.804Z,16.09
2023-03-24T12:35:01.770Z,16.25
2023-03-24T12:36:01.864Z,16.34
2023-03-24T12:37:01.744Z,16.56
2023-03-24T12:38:01.731Z,16.46
2023-03-24T12:39:02.073Z,16.28
2023-03-24T12:40:01.721Z,16.27
2023-03-24T12:41:01.717Z,16.28
2023-03-24T12:42:01.681Z,16.42
2023-03-24T12:43:01.664Z,16.27
2023-03-24T12:44:01.660Z,16.24
2023-03-24T12:45:01.640Z,16.28
2023-03-24T12:46:01.682Z,16.35
2023-03-24T12:47:01.618Z,16.24
2023-03-24T12:48:01.647Z,16.21
2023-03-24T12:49:01.605Z,16.28
2023-03-24T12:50:01.608Z,16.25
2023-03-24T12:51:01.588Z,16.23
2023-03-24T12:52:01.703Z,16.15